Time;durP1;ratioP1;P1;durP2;ratioP2;P2;SDS_P1;SDS_P2;PMS_P1;PMS_P2;Temp;Humidity;BMP_temperature;BMP_pressure;BME280_temperature;BME280_humidity;BME280_pressure;Samples;Min_cycle;Max_cycle;Signal;HPM_P1;HPM_P2
2023/05/13 00:00:23;;;;;;;7.68;3.90;;;;;;;;;;2087228;28;20643;-66
2023/05/13 00:01:42;;;;;;;7.03;3.17;;;;;;;;;;2088840;28;20033;-63
2023/05/13 00:03:01;;;;;;;7.75;3.60;;;;;;;;;;2088521;28;20473;-64
2023/05/13 00:04:20;;;;;;;7.20;3.45;;;;;;;;;;2092020;28;20029;-62
2023/05/13 00:05:39;;;;;;;4.35;3.13;;;;;;;;;;2087756;28;20489;-63
2023/05/13 00:06:58;;;;;;;3.92;3.17;;;;;;;;;;2090867;28;20025;-62
2023/05/13 00:08:18;;;;;;;7.63;3.17;;;;;;;;;;2091996;28;20037;-62
2023/05/13 00:09:38;;;;;;;4.30;3.60;;;;;;;;;;2090424;28;20028;-62
2023/05/13 00:10:57;;;;;;;4.93;3.47;;;;;;;;;;2091947;28;20041;-62
2023/05/13 00:12:15;;;;;;;8.38;3.88;;;;;;;;;;2087594;28;20028;-65
2023/05/13 00:13:34;;;;;;;4.35;3.40;;;;;;;;;;2090295;28;20021;-62
2023/05/13 00:14:53;;;;;;;7.78;3.95;;;;;;;;;;2090726;28;20029;-64
2023/05/13 00:16:12;;;;;;;3.42;3.13;;;;;;;;;;2098597;28;20024;-62
2023/05/13 00:17:31;;;;;;;7.05;3.60;;;;;;;;;;2095513;28;20029;-63
2023/05/13 00:18:50;;;;;;;4.18;3.78;;;;;;;;;;2086953;28;20382;-62
2023/05/13 00:20:10;;;;;;;4.72;3.47;;;;;;;;;;2090669;28;20028;-62
2023/05/13 00:21:29;;;;;;;5.18;3.63;;;;;;;;;;2087011;28;20028;-62
2023/05/13 00:22:47;;;;;;;6.60;3.88;;;;;;;;;;2084012;28;20037;-62
2023/05/13 00:24:07;;;;;;;7.93;3.55;;;;;;;;;;2093566;28;20036;-61
2023/05/13 00:25:25;;;;;;;4.82;3.55;;;;;;;;;;2090536;28;20056;-62
2023/05/13 00:26:45;;;;;;;11.23;3.50;;;;;;;;;;2093104;28;20025;-61
2023/05/13 00:28:04;;;;;;;4.47;3.20;;;;;;;;;;2087720;28;20036;-61
2023/05/13 00:29:23;;;;;;;7.15;3.40;;;;;;;;;;2093900;28;20033;-61
2023/05/13 00:30:42;;;;;;;6.90;3.80;;;;;;;;;;2087529;28;20073;-62
2023/05/13 00:32:02;;;;;;;14.80;3.80;;;;;;;;;;2092608;28;20037;-62
2023/05/13 00:33:20;;;;;;;3.67;3.15;;;;;;;;;;2090152;28;20021;-62
2023/05/13 00:34:39;;;;;;;5.35;3.58;;;;;;;;;;2087699;28;20033;-61
2023/05/13 00:35:58;;;;;;;5.40;3.38;;;;;;;;;;2088461;28;20374;-61
2023/05/13 00:37:17;;;;;;;4.10;3.22;;;;;;;;;;2089495;28;20522;-62
2023/05/13 00:38:37;;;;;;;5.72;3.60;;;;;;;;;;2086596;28;20486;-62
2023/05/13 00:39:56;;;;;;;4.32;3.92;;;;;;;;;;2088496;28;20017;-63
2023/05/13 00:41:16;;;;;;;6.20;3.70;;;;;;;;;;2092354;28;20016;-62
2023/05/13 00:42:35;;;;;;;4.30;4.00;;;;;;;;;;2092124;28;20486;-62
2023/05/13 00:43:57;;;;;;;6.43;4.13;;;;;;;;;;2091977;28;20025;-61
2023/05/13 00:45:16;;;;;;;4.68;4.03;;;;;;;;;;2088660;28;20029;-62
2023/05/13 00:46:35;;;;;;;5.85;4.00;;;;;;;;;;2090288;28;20052;-62
2023/05/13 00:47:54;;;;;;;7.60;4.78;;;;;;;;;;2090850;28;20029;-61
2023/05/13 00:49:13;;;;;;;5.72;4.18;;;;;;;;;;2094160;28;20032;-62
2023/05/13 00:50:33;;;;;;;4.88;4.45;;;;;;;;;;2091274;28;20390;-62
2023/05/13 00:51:54;;;;;;;6.95;3.90;;;;;;;;;;2088921;28;20029;-63
2023/05/13 00:53:13;;;;;;;6.78;4.22;;;;;;;;;;2091726;28;20659;-62
2023/05/13 00:54:33;;;;;;;5.70;3.63;;;;;;;;;;2091749;28;20103;-62
2023/05/13 00:55:52;;;;;;;4.55;3.97;;;;;;;;;;2088257;28;20030;-61
2023/05/13 00:57:11;;;;;;;7.55;3.92;;;;;;;;;;2089658;28;20397;-62
2023/05/13 00:58:30;;;;;;;5.88;4.20;;;;;;;;;;2087438;28;20029;-62
2023/05/13 00:59:49;;;;;;;6.25;2.95;;;;;;;;;;2086819;28;20534;-62
2023/05/13 01:01:13;;;;;;;14.52;4.13;;;;;;;;;;2090945;28;20033;-63
2023/05/13 01:02:50;;;;;;;5.57;4.30;;;;;;;;;;2088025;28;20519;-61
2023/05/13 01:04:16;;;;;;;8.90;3.60;;;;;;;;;;2090175;28;20508;-63
2023/05/13 01:05:38;;;;;;;7.75;4.40;;;;;;;;;;2090234;28;20533;-62
2023/05/13 01:06:57;;;;;;;13.68;3.83;;;;;;;;;;2090185;28;20028;-62
2023/05/13 01:08:25;;;;;;;11.15;3.80;;;;;;;;;;2088648;28;20108;-62
2023/05/13 01:10:04;;;;;;;8.93;3.65;;;;;;;;;;2090457;28;20041;-61
2023/05/13 01:11:36;;;;;;;8.15;3.90;;;;;;;;;;2091302;28;20037;-62
2023/05/13 01:13:00;;;;;;;8.02;3.95;;;;;;;;;;2088795;28;20029;-64
2023/05/13 01:14:22;;;;;;;6.57;3.80;;;;;;;;;;2090928;28;20021;-61
2023/05/13 01:15:46;;;;;;;12.07;4.05;;;;;;;;;;2086639;28;20029;-62
2023/05/13 01:17:13;;;;;;;11.40;4.18;;;;;;;;;;2087326;28;20123;-62
2023/05/13 01:18:36;;;;;;;10.25;3.95;;;;;;;;;;2091026;28;20036;-63
2023/05/13 01:19:56;;;;;;;10.93;4.60;;;;;;;;;;2086582;28;20025;-61
2023/05/13 01:21:15;;;;;;;10.23;3.92;;;;;;;;;;2088232;28;20516;-61
2023/05/13 01:22:34;;;;;;;16.65;4.75;;;;;;;;;;2088110;28;20024;-62
2023/05/13 01:23:53;;;;;;;12.75;4.63;;;;;;;;;;2087629;28;20112;-63
2023/05/13 01:25:12;;;;;;;5.18;3.50;;;;;;;;;;2090613;28;20468;-62
2023/05/13 01:26:31;;;;;;;12.27;4.80;;;;;;;;;;2088914;28;20492;-61
2023/05/13 01:27:51;;;;;;;16.83;4.75;;;;;;;;;;2090875;28;20068;-61
2023/05/13 01:29:10;;;;;;;11.20;5.13;;;;;;;;;;2091786;28;20024;-63
2023/05/13 01:30:30;;;;;;;9.98;4.40;;;;;;;;;;2087698;28;20033;-62
2023/05/13 01:31:49;;;;;;;14.23;4.38;;;;;;;;;;2091695;28;20385;-63
2023/05/13 01:33:09;;;;;;;7.82;3.90;;;;;;;;;;2090604;28;20568;-61
2023/05/13 01:34:30;;;;;;;12.60;4.82;;;;;;;;;;2086901;28;20133;-64
2023/05/13 01:35:50;;;;;;;12.32;5.00;;;;;;;;;;2080612;28;20033;-63
2023/05/13 01:37:09;;;;;;;7.93;4.18;;;;;;;;;;2092819;28;20033;-61
2023/05/13 01:38:29;;;;;;;8.35;4.15;;;;;;;;;;2088459;28;20025;-61
2023/05/13 01:39:49;;;;;;;13.48;5.03;;;;;;;;;;2088727;28;20699;-62
2023/05/13 01:41:08;;;;;;;9.80;4.47;;;;;;;;;;2090741;28;20041;-61
2023/05/13 01:42:28;;;;;;;14.25;4.30;;;;;;;;;;2089478;28;20040;-62
2023/05/13 01:43:47;;;;;;;10.23;3.65;;;;;;;;;;2090604;28;20111;-62
2023/05/13 01:45:06;;;;;;;6.13;4.20;;;;;;;;;;2088879;28;20040;-62
2023/05/13 01:46:26;;;;;;;6.40;3.95;;;;;;;;;;2090790;28;20037;-62
2023/05/13 01:47:45;;;;;;;9.82;3.92;;;;;;;;;;2091077;28;20021;-62
2023/05/13 01:49:06;;;;;;;11.60;4.45;;;;;;;;;;2091646;28;20029;-61
2023/05/13 01:50:25;;;;;;;9.32;3.95;;;;;;;;;;2091484;28;20560;-68
2023/05/13 01:51:44;;;;;;;9.73;4.13;;;;;;;;;;2088433;28;20033;-62
2023/05/13 01:53:03;;;;;;;8.45;3.80;;;;;;;;;;2086664;28;20025;-62
2023/05/13 01:54:24;;;;;;;9.15;3.33;;;;;;;;;;2092068;28;20021;-62
2023/05/13 01:55:43;;;;;;;8.38;4.28;;;;;;;;;;2091932;28;20032;-62
2023/05/13 01:57:02;;;;;;;12.40;4.05;;;;;;;;;;2090375;28;20116;-61
2023/05/13 01:58:21;;;;;;;10.80;3.72;;;;;;;;;;2089918;28;20037;-62
2023/05/13 01:59:40;;;;;;;9.48;3.75;;;;;;;;;;2091157;28;20485;-63
2023/05/13 02:00:59;;;;;;;10.52;4.03;;;;;;;;;;2088513;28;20116;-62
2023/05/13 02:02:18;;;;;;;10.45;4.43;;;;;;;;;;2084202;28;20033;-64
2023/05/13 02:03:37;;;;;;;9.48;4.07;;;;;;;;;;2091808;28;20024;-62
2023/05/13 02:04:56;;;;;;;15.30;4.32;;;;;;;;;;2089779;28;20021;-63
2023/05/13 02:06:15;;;;;;;12.55;4.05;;;;;;;;;;2091917;28;20398;-63
2023/05/13 02:07:34;;;;;;;9.05;4.93;;;;;;;;;;2092660;28;20075;-61
2023/05/13 02:08:53;;;;;;;15.32;4.03;;;;;;;;;;2088252;28;20402;-62
2023/05/13 02:10:12;;;;;;;22.90;5.68;;;;;;;;;;2087648;28;20527;-62
2023/05/13 02:11:31;;;;;;;18.58;5.50;;;;;;;;;;2089234;28;20405;-61
2023/05/13 02:12:50;;;;;;;14.70;4.47;;;;;;;;;;2091087;28;20028;-61
2023/05/13 02:14:09;;;;;;;17.45;5.03;;;;;;;;;;2090620;28;20025;-61
2023/05/13 02:15:28;;;;;;;10.20;3.67;;;;;;;;;;2089269;28;20119;-61
2023/05/13 02:16:47;;;;;;;12.90;4.00;;;;;;;;;;2092213;28;20024;-62
2023/05/13 02:18:06;;;;;;;15.93;4.53;;;;;;;;;;2089296;28;20113;-61
2023/05/13 02:19:25;;;;;;;11.98;4.00;;;;;;;;;;2089074;28;20028;-61
2023/05/13 02:20:44;;;;;;;19.65;4.20;;;;;;;;;;2089348;28;20029;-63
2023/05/13 02:22:03;;;;;;;7.40;3.67;;;;;;;;;;2084422;28;21513;-62
2023/05/13 02:23:22;;;;;;;8.20;3.85;;;;;;;;;;2089201;28;20485;-61
2023/05/13 02:24:41;;;;;;;11.20;3.67;;;;;;;;;;2093833;28;20041;-61
2023/05/13 02:26:00;;;;;;;11.00;3.22;;;;;;;;;;2086587;28;20065;-62
2023/05/13 02:27:19;;;;;;;12.95;4.13;;;;;;;;;;2092433;28;20024;-61
2023/05/13 02:28:38;;;;;;;9.70;3.90;;;;;;;;;;2092030;28;20107;-62
2023/05/13 02:29:57;;;;;;;8.45;3.92;;;;;;;;;;2089970;28;20041;-61
2023/05/13 02:31:16;;;;;;;7.88;3.67;;;;;;;;;;2087888;28;20386;-62
2023/05/13 02:32:35;;;;;;;5.70;4.35;;;;;;;;;;2088740;28;20104;-61
2023/05/13 02:33:54;;;;;;;8.95;4.43;;;;;;;;;;2091463;28;20033;-61
2023/05/13 02:35:13;;;;;;;10.13;4.45;;;;;;;;;;2087339;28;20036;-61
2023/05/13 02:36:32;;;;;;;11.93;5.03;;;;;;;;;;2090517;28;20061;-61
2023/05/13 02:37:51;;;;;;;13.70;4.53;;;;;;;;;;2089340;28;20374;-62
2023/05/13 02:39:10;;;;;;;7.10;4.28;;;;;;;;;;2090436;28;20423;-62
2023/05/13 02:40:29;;;;;;;9.43;3.97;;;;;;;;;;2091719;28;20443;-62
2023/05/13 02:41:48;;;;;;;11.63;4.85;;;;;;;;;;2092147;28;20024;-62
2023/05/13 02:43:07;;;;;;;10.23;3.85;;;;;;;;;;2080934;28;20167;-62
2023/05/13 02:44:26;;;;;;;14.68;4.63;;;;;;;;;;2090368;28;20032;-62
2023/05/13 02:45:46;;;;;;;6.82;4.35;;;;;;;;;;2088119;28;20024;-61
2023/05/13 02:47:05;;;;;;;9.23;3.75;;;;;;;;;;2092802;28;20025;-63
2023/05/13 02:48:24;;;;;;;8.70;4.35;;;;;;;;;;2091810;28;20033;-62
2023/05/13 02:49:43;;;;;;;7.40;4.13;;;;;;;;;;2091370;28;20107;-63
2023/05/13 02:51:02;;;;;;;10.10;4.03;;;;;;;;;;2091450;28;20063;-62
2023/05/13 02:52:21;;;;;;;6.63;3.38;;;;;;;;;;2089461;28;20393;-62
2023/05/13 02:53:40;;;;;;;11.15;4.13;;;;;;;;;;2088378;28;20481;-63
2023/05/13 02:54:59;;;;;;;9.27;4.35;;;;;;;;;;2092523;28;20116;-62
2023/05/13 02:56:18;;;;;;;5.95;3.15;;;;;;;;;;2088342;28;20033;-62
2023/05/13 02:57:36;;;;;;;8.43;3.40;;;;;;;;;;2090072;28;20036;-62
2023/05/13 02:58:55;;;;;;;6.40;3.88;;;;;;;;;;2089934;28;20049;-62
2023/05/13 03:00:14;;;;;;;9.82;3.50;;;;;;;;;;2088005;28;20029;-63
2023/05/13 03:01:33;;;;;;;9.80;3.92;;;;;;;;;;2090636;28;20029;-62
2023/05/13 03:02:52;;;;;;;5.68;3.55;;;;;;;;;;2087970;28;20049;-62
2023/05/13 03:04:11;;;;;;;5.13;3.60;;;;;;;;;;2090170;28;20025;-62
2023/05/13 03:05:30;;;;;;;4.68;3.63;;;;;;;;;;2090121;28;20053;-62
2023/05/13 03:06:49;;;;;;;8.15;3.47;;;;;;;;;;2089903;28;20079;-61
2023/05/13 03:08:08;;;;;;;10.93;3.90;;;;;;;;;;2086991;28;20385;-63
2023/05/13 03:09:27;;;;;;;5.70;3.22;;;;;;;;;;2091972;28;20037;-61
2023/05/13 03:10:46;;;;;;;4.45;3.50;;;;;;;;;;2090413;28;20229;-61
2023/05/13 03:12:05;;;;;;;5.95;3.72;;;;;;;;;;2088369;28;20097;-61
2023/05/13 03:13:24;;;;;;;5.40;3.35;;;;;;;;;;2093043;28;20032;-61
2023/05/13 03:14:43;;;;;;;6.22;3.92;;;;;;;;;;2091516;28;20432;-62
2023/05/13 03:16:02;;;;;;;3.05;2.80;;;;;;;;;;2087306;28;20029;-61
2023/05/13 03:17:21;;;;;;;4.93;3.17;;;;;;;;;;2091810;28;20024;-62
2023/05/13 03:18:40;;;;;;;5.03;4.05;;;;;;;;;;2091362;28;20041;-62
2023/05/13 03:19:59;;;;;;;5.13;3.20;;;;;;;;;;2090005;28;20055;-63
2023/05/13 03:21:18;;;;;;;5.63;3.58;;;;;;;;;;2088560;28;20037;-62
2023/05/13 03:22:39;;;;;;;8.38;3.28;;;;;;;;;;2092627;28;20033;-62
2023/05/13 03:23:58;;;;;;;4.85;3.28;;;;;;;;;;2087718;28;20928;-62
2023/05/13 03:25:17;;;;;;;4.03;3.08;;;;;;;;;;2094296;28;20033;-62
2023/05/13 03:26:36;;;;;;;3.30;2.72;;;;;;;;;;2092969;28;20111;-62
2023/05/13 03:27:56;;;;;;;4.70;3.20;;;;;;;;;;2094833;28;20032;-63
2023/05/13 03:29:14;;;;;;;6.63;3.22;;;;;;;;;;2086782;28;20599;-63
2023/05/13 03:30:33;;;;;;;3.60;3.28;;;;;;;;;;2091842;28;20040;-62
2023/05/13 03:31:53;;;;;;;4.68;2.85;;;;;;;;;;2093328;28;20033;-64
2023/05/13 03:33:12;;;;;;;5.35;3.47;;;;;;;;;;2092162;28;20075;-62
2023/05/13 03:34:32;;;;;;;7.47;3.20;;;;;;;;;;2091743;28;20400;-62
2023/05/13 03:35:51;;;;;;;4.78;3.30;;;;;;;;;;2093550;28;20033;-61
2023/05/13 03:37:10;;;;;;;2.97;2.70;;;;;;;;;;2094303;28;20029;-62
2023/05/13 03:38:29;;;;;;;5.07;3.33;;;;;;;;;;2096305;28;20025;-62
2023/05/13 03:39:47;;;;;;;5.65;3.78;;;;;;;;;;2090443;28;20025;-62
2023/05/13 03:41:06;;;;;;;6.93;3.53;;;;;;;;;;2086414;28;20021;-62
2023/05/13 03:42:25;;;;;;;4.72;3.47;;;;;;;;;;2094031;28;20025;-65
2023/05/13 03:43:44;;;;;;;5.93;3.40;;;;;;;;;;2092964;28;20029;-62
2023/05/13 03:45:03;;;;;;;4.50;3.40;;;;;;;;;;2093635;28;20037;-63
2023/05/13 03:46:26;;;;;;;6.65;3.40;;;;;;;;;;2091625;28;20032;-62
2023/05/13 03:47:45;;;;;;;6.38;3.20;;;;;;;;;;2092387;28;20366;-62
2023/05/13 03:49:04;;;;;;;4.22;3.13;;;;;;;;;;2095527;28;20104;-61
2023/05/13 03:50:23;;;;;;;4.50;3.40;;;;;;;;;;2095796;28;20045;-62
2023/05/13 03:51:42;;;;;;;4.95;3.30;;;;;;;;;;2093291;28;20501;-62
2023/05/13 03:53:01;;;;;;;9.15;4.03;;;;;;;;;;2092174;28;20033;-62
2023/05/13 03:54:20;;;;;;;3.92;3.20;;;;;;;;;;2092673;28;20036;-62
2023/05/13 03:55:39;;;;;;;5.32;3.58;;;;;;;;;;2093175;28;20026;-61
2023/05/13 03:56:58;;;;;;;8.40;3.40;;;;;;;;;;2086933;28;20021;-62
2023/05/13 03:58:17;;;;;;;5.85;3.50;;;;;;;;;;2087469;28;20033;-61
2023/05/13 03:59:36;;;;;;;5.35;3.20;;;;;;;;;;2091740;28;20052;-62
2023/05/13 04:00:55;;;;;;;6.15;3.72;;;;;;;;;;2090761;28;20017;-62
2023/05/13 04:02:14;;;;;;;7.13;3.10;;;;;;;;;;2093777;28;20032;-62
2023/05/13 04:03:33;;;;;;;5.93;3.58;;;;;;;;;;2090465;28;20033;-62
2023/05/13 04:04:52;;;;;;;6.63;3.42;;;;;;;;;;2090575;28;20362;-63
2023/05/13 04:06:13;;;;;;;7.30;3.70;;;;;;;;;;2093184;28;20038;-62
2023/05/13 04:07:32;;;;;;;8.82;3.38;;;;;;;;;;2092012;28;20029;-62
2023/05/13 04:08:51;;;;;;;5.18;3.25;;;;;;;;;;2095258;28;20028;-62
2023/05/13 04:10:10;;;;;;;9.80;3.20;;;;;;;;;;2094088;28;20024;-62
2023/05/13 04:11:30;;;;;;;4.10;3.75;;;;;;;;;;2091946;28;20021;-63
2023/05/13 04:12:49;;;;;;;7.47;3.42;;;;;;;;;;2092307;28;20103;-63
2023/05/13 04:14:08;;;;;;;7.97;3.47;;;;;;;;;;2090816;28;20033;-63
2023/05/13 04:15:27;;;;;;;8.50;3.53;;;;;;;;;;2092352;28;20032;-62
2023/05/13 04:16:46;;;;;;;6.95;3.50;;;;;;;;;;2090006;28;20433;-63
2023/05/13 04:18:05;;;;;;;9.20;3.30;;;;;;;;;;2093717;28;20024;-61
2023/05/13 04:19:23;;;;;;;5.95;3.50;;;;;;;;;;2089541;28;20029;-63
2023/05/13 04:20:43;;;;;;;5.57;3.10;;;;;;;;;;2089987;28;20028;-63
2023/05/13 04:22:02;;;;;;;5.88;3.50;;;;;;;;;;2089934;28;20040;-63
2023/05/13 04:23:21;;;;;;;3.90;3.20;;;;;;;;;;2092601;28;20025;-63
2023/05/13 04:24:40;;;;;;;5.07;3.35;;;;;;;;;;2094598;28;20032;-61
2023/05/13 04:25:59;;;;;;;8.02;3.40;;;;;;;;;;2093332;28;20029;-63
2023/05/13 04:27:18;;;;;;;10.20;3.58;;;;;;;;;;2092346;28;20056;-63
2023/05/13 04:28:37;;;;;;;4.22;3.30;;;;;;;;;;2090932;28;20053;-62
2023/05/13 04:29:56;;;;;;;4.97;3.60;;;;;;;;;;2091137;28;20068;-63
2023/05/13 04:31:15;;;;;;;5.43;3.03;;;;;;;;;;2091647;28;20025;-61
2023/05/13 04:32:34;;;;;;;9.43;3.30;;;;;;;;;;2091138;28;20033;-62
2023/05/13 04:33:53;;;;;;;5.40;3.20;;;;;;;;;;2091246;28;20503;-63
2023/05/13 04:35:12;;;;;;;3.60;2.97;;;;;;;;;;2092785;28;20048;-64
2023/05/13 04:36:31;;;;;;;4.35;3.58;;;;;;;;;;2088467;28;20434;-63
2023/05/13 04:37:50;;;;;;;6.72;3.42;;;;;;;;;;2086230;28;20401;-64
2023/05/13 04:39:09;;;;;;;4.65;3.80;;;;;;;;;;2091083;28;20025;-62
2023/05/13 04:40:28;;;;;;;7.43;3.28;;;;;;;;;;2092981;28;20028;-62
2023/05/13 04:41:47;;;;;;;5.85;3.30;;;;;;;;;;2094183;28;20017;-62
2023/05/13 04:43:06;;;;;;;8.15;3.45;;;;;;;;;;2092000;28;20465;-62
2023/05/13 04:44:25;;;;;;;7.45;3.83;;;;;;;;;;2093309;28;20478;-62
2023/05/13 04:45:46;;;;;;;4.78;3.17;;;;;;;;;;2092447;28;20032;-62
2023/05/13 04:47:05;;;;;;;4.72;3.40;;;;;;;;;;2092602;28;20028;-63
2023/05/13 04:48:26;;;;;;;9.48;3.40;;;;;;;;;;2091318;28;20394;-62
2023/05/13 04:49:45;;;;;;;4.32;3.08;;;;;;;;;;2092053;28;20029;-62
2023/05/13 04:51:04;;;;;;;3.17;2.88;;;;;;;;;;2092564;28;20485;-62
2023/05/13 04:52:23;;;;;;;4.75;2.95;;;;;;;;;;2090246;28;20029;-63
2023/05/13 04:53:42;;;;;;;4.95;3.40;;;;;;;;;;2087333;28;20036;-64
2023/05/13 04:55:02;;;;;;;3.83;3.53;;;;;;;;;;2091206;28;20020;-61
2023/05/13 04:56:21;;;;;;;5.70;3.20;;;;;;;;;;2088562;28;20684;-62
2023/05/13 04:57:40;;;;;;;6.55;3.17;;;;;;;;;;2092480;28;20036;-62
2023/05/13 04:58:59;;;;;;;3.28;2.97;;;;;;;;;;2090969;28;20064;-62
2023/05/13 05:00:17;;;;;;;3.60;2.90;;;;;;;;;;2090988;28;20390;-63
2023/05/13 05:01:36;;;;;;;7.50;3.70;;;;;;;;;;2094425;28;20448;-62
2023/05/13 05:02:56;;;;;;;5.30;3.38;;;;;;;;;;2093376;28;20036;-63
2023/05/13 05:04:16;;;;;;;4.00;3.00;;;;;;;;;;2092173;28;20039;-62
2023/05/13 05:05:35;;;;;;;3.60;2.90;;;;;;;;;;2087197;28;20053;-62
2023/05/13 05:06:54;;;;;;;4.18;3.38;;;;;;;;;;2089838;28;20041;-62
2023/05/13 05:08:14;;;;;;;3.30;2.80;;;;;;;;;;2091770;28;20413;-63
2023/05/13 05:09:32;;;;;;;9.88;3.90;;;;;;;;;;2091133;28;20025;-63
2023/05/13 05:10:51;;;;;;;5.05;3.13;;;;;;;;;;2092491;28;20032;-62
2023/05/13 05:12:10;;;;;;;6.47;3.33;;;;;;;;;;2088875;28;20580;-62
2023/05/13 05:13:29;;;;;;;3.20;2.90;;;;;;;;;;2092434;28;20487;-63
2023/05/13 05:14:48;;;;;;;5.43;3.97;;;;;;;;;;2090263;28;20630;-63
2023/05/13 05:16:07;;;;;;;4.40;3.03;;;;;;;;;;2092452;28;20382;-62
2023/05/13 05:17:31;;;;;;;3.83;3.13;;;;;;;;;;2091841;28;20020;-63
2023/05/13 05:18:50;;;;;;;6.80;3.00;;;;;;;;;;2093267;28;20099;-62
2023/05/13 05:20:09;;;;;;;6.57;3.40;;;;;;;;;;2093274;28;20393;-64
2023/05/13 05:21:29;;;;;;;5.97;3.10;;;;;;;;;;2095654;28;20033;-62
2023/05/13 05:22:49;;;;;;;11.73;3.38;;;;;;;;;;2093435;28;20025;-62
2023/05/13 05:24:07;;;;;;;5.05;3.10;;;;;;;;;;2091267;28;20897;-62
2023/05/13 05:25:27;;;;;;;6.63;3.33;;;;;;;;;;2091524;28;20485;-62
2023/05/13 05:26:46;;;;;;;3.25;3.05;;;;;;;;;;2091366;28;20033;-62
2023/05/13 05:28:04;;;;;;;4.50;3.38;;;;;;;;;;2087521;28;20028;-62
2023/05/13 05:29:23;;;;;;;4.88;3.00;;;;;;;;;;2092264;28;20033;-63
2023/05/13 05:30:42;;;;;;;4.72;3.17;;;;;;;;;;2089267;28;20020;-63
2023/05/13 05:32:02;;;;;;;5.15;3.17;;;;;;;;;;2092692;28;20108;-63
2023/05/13 05:33:21;;;;;;;4.82;3.45;;;;;;;;;;2092386;28;20044;-62
2023/05/13 05:34:40;;;;;;;5.47;3.45;;;;;;;;;;2087690;28;20029;-63
2023/05/13 05:35:59;;;;;;;3.80;3.03;;;;;;;;;;2093288;28;20052;-63
2023/05/13 05:37:18;;;;;;;5.55;3.25;;;;;;;;;;2091079;28;20020;-66
2023/05/13 05:38:37;;;;;;;8.13;3.72;;;;;;;;;;2084444;28;20029;-63
2023/05/13 05:39:56;;;;;;;7.85;3.20;;;;;;;;;;2092778;28;20020;-63
2023/05/13 05:41:15;;;;;;;5.57;2.90;;;;;;;;;;2094373;28;20025;-62
2023/05/13 05:42:34;;;;;;;4.80;3.33;;;;;;;;;;2093891;28;20029;-65
2023/05/13 05:43:53;;;;;;;4.70;3.20;;;;;;;;;;2092160;28;20028;-63
2023/05/13 05:45:12;;;;;;;4.50;2.83;;;;;;;;;;2088983;28;20016;-62
2023/05/13 05:46:31;;;;;;;3.30;2.90;;;;;;;;;;2091207;28;20036;-62
2023/05/13 05:47:52;;;;;;;6.75;3.00;;;;;;;;;;2090729;28;20096;-62
2023/05/13 05:49:11;;;;;;;3.20;2.88;;;;;;;;;;2091570;28;20605;-63
2023/05/13 05:50:31;;;;;;;5.05;2.85;;;;;;;;;;2091847;28;20032;-62
2023/05/13 05:51:50;;;;;;;4.32;3.40;;;;;;;;;;2084987;28;20527;-62
2023/05/13 05:53:09;;;;;;;5.13;2.85;;;;;;;;;;2090591;28;20033;-63
2023/05/13 05:54:28;;;;;;;3.33;3.03;;;;;;;;;;2085851;28;20116;-63
2023/05/13 05:55:47;;;;;;;6.65;3.05;;;;;;;;;;2084728;28;20067;-63
2023/05/13 05:57:06;;;;;;;5.93;2.75;;;;;;;;;;2090808;28;20028;-62
2023/05/13 05:58:25;;;;;;;4.32;2.75;;;;;;;;;;2087695;28;20037;-64
2023/05/13 05:59:45;;;;;;;3.10;2.80;;;;;;;;;;2088445;28;20041;-63
2023/05/13 06:01:04;;;;;;;5.43;2.85;;;;;;;;;;2083863;28;20663;-64
2023/05/13 06:02:24;;;;;;;6.20;2.90;;;;;;;;;;2092432;28;20029;-64
2023/05/13 06:03:44;;;;;;;3.72;3.10;;;;;;;;;;2091851;28;20135;-63
2023/05/13 06:05:03;;;;;;;5.78;2.72;;;;;;;;;;2089076;28;20076;-63
2023/05/13 06:06:22;;;;;;;2.80;2.60;;;;;;;;;;2084613;28;20596;-63
2023/05/13 06:07:41;;;;;;;3.45;2.90;;;;;;;;;;2085571;28;20037;-63
2023/05/13 06:09:00;;;;;;;7.13;2.83;;;;;;;;;;2090626;28;20421;-62
2023/05/13 06:10:20;;;;;;;3.55;2.63;;;;;;;;;;2092064;28;20021;-64
2023/05/13 06:11:38;;;;;;;4.55;3.00;;;;;;;;;;2087356;28;20033;-64
2023/05/13 06:12:57;;;;;;;4.07;2.55;;;;;;;;;;2089974;28;20056;-62
2023/05/13 06:14:16;;;;;;;7.20;2.90;;;;;;;;;;2087225;28;20025;-63
2023/05/13 06:15:37;;;;;;;3.20;2.42;;;;;;;;;;2090336;28;20505;-62
2023/05/13 06:16:56;;;;;;;7.95;2.53;;;;;;;;;;2088784;28;20028;-62
2023/05/13 06:18:15;;;;;;;3.45;2.53;;;;;;;;;;2094897;28;20025;-61
2023/05/13 06:19:34;;;;;;;5.82;2.65;;;;;;;;;;2092169;28;20405;-63
2023/05/13 06:20:53;;;;;;;4.70;3.33;;;;;;;;;;2091133;28;20029;-62
2023/05/13 06:22:12;;;;;;;5.25;2.80;;;;;;;;;;2092572;28;20099;-62
2023/05/13 06:23:31;;;;;;;2.35;2.10;;;;;;;;;;2093010;28;20037;-62
2023/05/13 06:24:50;;;;;;;5.85;2.42;;;;;;;;;;2083376;28;20021;-63
2023/05/13 06:26:10;;;;;;;5.90;2.53;;;;;;;;;;2091008;28;20150;-63
2023/05/13 06:27:29;;;;;;;5.53;2.95;;;;;;;;;;2095408;28;20040;-63
2023/05/13 06:28:48;;;;;;;5.45;2.92;;;;;;;;;;2092972;28;20390;-63
2023/05/13 06:30:07;;;;;;;3.33;3.00;;;;;;;;;;2091170;28;20049;-64
2023/05/13 06:31:26;;;;;;;5.80;2.60;;;;;;;;;;2092880;28;20029;-64
2023/05/13 06:32:45;;;;;;;5.85;2.38;;;;;;;;;;2092598;28;20069;-63
2023/05/13 06:34:04;;;;;;;3.40;2.50;;;;;;;;;;2091823;28;20028;-63
2023/05/13 06:35:23;;;;;;;3.05;2.65;;;;;;;;;;2088710;28;20104;-62
2023/05/13 06:36:42;;;;;;;5.13;2.83;;;;;;;;;;2089376;28;20025;-63
2023/05/13 06:38:01;;;;;;;5.82;2.42;;;;;;;;;;2092742;28;20033;-63
2023/05/13 06:39:21;;;;;;;5.35;2.95;;;;;;;;;;2091750;28;20021;-62
2023/05/13 06:40:39;;;;;;;4.22;2.67;;;;;;;;;;2090519;28;20468;-62
2023/05/13 06:41:59;;;;;;;4.32;2.10;;;;;;;;;;2086636;28;20061;-64
2023/05/13 06:43:18;;;;;;;3.50;2.72;;;;;;;;;;2092617;28;20390;-63
2023/05/13 06:44:38;;;;;;;4.18;3.22;;;;;;;;;;2094151;28;20036;-63
2023/05/13 06:45:58;;;;;;;2.63;2.20;;;;;;;;;;2092634;28;20104;-63
2023/05/13 06:47:17;;;;;;;3.78;2.85;;;;;;;;;;2094757;28;20033;-63
2023/05/13 06:48:36;;;;;;;4.10;2.50;;;;;;;;;;2091898;28;20064;-62
2023/05/13 06:49:55;;;;;;;6.28;2.67;;;;;;;;;;2092522;28;20024;-63
2023/05/13 06:51:14;;;;;;;5.53;2.83;;;;;;;;;;2085305;28;20037;-63
2023/05/13 06:52:33;;;;;;;2.72;2.53;;;;;;;;;;2086897;28;20029;-63
2023/05/13 06:53:52;;;;;;;3.33;2.55;;;;;;;;;;2091671;28;20021;-63
2023/05/13 06:55:11;;;;;;;6.38;2.38;;;;;;;;;;2092570;28;20036;-63
2023/05/13 06:56:31;;;;;;;6.40;2.53;;;;;;;;;;2092825;28;20044;-63
2023/05/13 06:57:50;;;;;;;4.55;2.50;;;;;;;;;;2087046;28;20025;-63
2023/05/13 06:59:09;;;;;;;3.00;2.70;;;;;;;;;;2092288;28;20100;-64
2023/05/13 07:00:28;;;;;;;3.70;2.33;;;;;;;;;;2093689;28;20029;-64
2023/05/13 07:01:47;;;;;;;6.25;2.53;;;;;;;;;;2094457;28;20029;-62
2023/05/13 07:03:06;;;;;;;4.43;2.70;;;;;;;;;;2088764;28;20472;-62
2023/05/13 07:04:28;;;;;;;3.08;2.65;;;;;;;;;;2091662;28;20037;-63
2023/05/13 07:05:46;;;;;;;4.00;2.60;;;;;;;;;;2088683;28;20037;-63
2023/05/13 07:07:05;;;;;;;3.88;2.30;;;;;;;;;;2093359;28;20048;-63
2023/05/13 07:08:24;;;;;;;3.67;2.55;;;;;;;;;;2080572;28;20670;-64
2023/05/13 07:09:43;;;;;;;3.60;2.58;;;;;;;;;;2089031;28;20028;-63
2023/05/13 07:11:02;;;;;;;7.82;2.50;;;;;;;;;;2088234;28;20041;-63
2023/05/13 07:12:21;;;;;;;4.60;2.72;;;;;;;;;;2089588;28;20448;-64
2023/05/13 07:13:40;;;;;;;3.05;2.40;;;;;;;;;;2094201;28;20024;-64
2023/05/13 07:14:59;;;;;;;5.78;2.25;;;;;;;;;;2092746;28;20025;-62
2023/05/13 07:16:18;;;;;;;3.70;2.50;;;;;;;;;;2094228;28;20447;-63
2023/05/13 07:17:37;;;;;;;5.03;2.78;;;;;;;;;;2093552;28;20100;-63
2023/05/13 07:18:56;;;;;;;7.68;2.10;;;;;;;;;;2087009;28;20439;-63
2023/05/13 07:20:18;;;;;;;6.05;2.40;;;;;;;;;;2092130;28;20480;-63
2023/05/13 07:21:37;;;;;;;3.30;2.30;;;;;;;;;;2097252;28;20437;-62
2023/05/13 07:22:55;;;;;;;3.53;2.30;;;;;;;;;;2088791;28;20029;-63
2023/05/13 07:24:14;;;;;;;4.13;2.67;;;;;;;;;;2085263;28;20509;-62
2023/05/13 07:25:33;;;;;;;5.07;2.22;;;;;;;;;;2089731;28;20044;-64
2023/05/13 07:26:52;;;;;;;2.60;2.30;;;;;;;;;;2085324;28;20033;-63
2023/05/13 07:28:11;;;;;;;4.28;2.55;;;;;;;;;;2085288;28;20067;-62
2023/05/13 07:29:31;;;;;;;5.20;2.80;;;;;;;;;;2092443;28;20080;-64
2023/05/13 07:30:52;;;;;;;5.88;2.47;;;;;;;;;;2091605;28;20074;-63
2023/05/13 07:32:11;;;;;;;6.53;2.25;;;;;;;;;;2091819;28;20036;-63
2023/05/13 07:33:30;;;;;;;6.40;2.50;;;;;;;;;;2093407;28;20045;-63
2023/05/13 07:34:49;;;;;;;4.38;2.20;;;;;;;;;;2091775;28;20024;-63
2023/05/13 07:36:08;;;;;;;4.75;2.33;;;;;;;;;;2090887;28;20516;-63
2023/05/13 07:37:27;;;;;;;3.45;2.33;;;;;;;;;;2091223;28;20025;-63
2023/05/13 07:38:46;;;;;;;4.28;2.20;;;;;;;;;;2090401;28;20029;-62
2023/05/13 07:40:05;;;;;;;2.60;2.20;;;;;;;;;;2089857;28;20025;-63
2023/05/13 07:41:26;;;;;;;5.47;2.50;;;;;;;;;;2092928;28;20024;-63
2023/05/13 07:42:45;;;;;;;5.15;2.47;;;;;;;;;;2091903;28;20456;-64
2023/05/13 07:44:04;;;;;;;3.42;2.30;;;;;;;;;;2088902;28;20025;-64
2023/05/13 07:45:23;;;;;;;7.53;2.45;;;;;;;;;;2088544;28;20913;-63
2023/05/13 07:46:43;;;;;;;5.47;2.60;;;;;;;;;;2095882;28;20568;-63
2023/05/13 07:48:02;;;;;;;4.15;2.67;;;;;;;;;;2094937;28;20033;-62
2023/05/13 07:49:21;;;;;;;2.40;2.00;;;;;;;;;;2091985;28;20029;-63
2023/05/13 07:50:40;;;;;;;7.35;2.50;;;;;;;;;;2091407;28;20062;-64
2023/05/13 07:51:59;;;;;;;5.75;2.55;;;;;;;;;;2093519;28;20040;-63
2023/05/13 07:53:18;;;;;;;4.03;2.28;;;;;;;;;;2092520;28;20017;-64
2023/05/13 07:54:37;;;;;;;6.43;2.15;;;;;;;;;;2087674;28;20111;-63